sensor_id;sensor_type;location;lat;lon;timestamp;P1;durP1;ratioP1;P2;durP2;ratioP2
10586;SDS011;5341;47.606;7.576;2023-08-01T00:01:15;11.20;;;5.10;;
10586;SDS011;5341;47.606;7.576;2023-08-01T00:03:43;7.03;;;5.30;;
10586;SDS011;5341;47.606;7.576;2023-08-01T00:06:12;7.65;;;5.47;;
10586;SDS011;5341;47.606;7.576;2023-08-01T00:08:40;6.78;;;5.13;;
10586;SDS011;5341;47.606;7.576;2023-08-01T00:11:07;5.80;;;5.22;;
10586;SDS011;5341;47.606;7.576;2023-08-01T00:13:37;6.35;;;4.78;;
10586;SDS011;5341;47.606;7.576;2023-08-01T00:16:04;5.88;;;5.30;;
10586;SDS011;5341;47.606;7.576;2023-08-01T00:18:32;6.15;;;4.78;;
10586;SDS011;5341;47.606;7.576;2023-08-01T00:21:00;7.20;;;5.00;;
10586;SDS011;5341;47.606;7.576;2023-08-01T00:23:29;7.20;;;4.75;;
10586;SDS011;5341;47.606;7.576;2023-08-01T00:25:56;6.22;;;5.00;;
10586;SDS011;5341;47.606;7.576;2023-08-01T00:28:23;5.25;;;4.68;;
10586;SDS011;5341;47.606;7.576;2023-08-01T00:31:00;7.60;;;5.05;;
10586;SDS011;5341;47.606;7.576;2023-08-01T00:33:29;6.00;;;4.80;;
10586;SDS011;5341;47.606;7.576;2023-08-01T00:35:56;7.30;;;4.57;;
10586;SDS011;5341;47.606;7.576;2023-08-01T00:38:24;6.38;;;4.57;;
10586;SDS011;5341;47.606;7.576;2023-08-01T00:40:53;7.07;;;4.60;;
10586;SDS011;5341;47.606;7.576;2023-08-01T00:43:20;6.05;;;4.97;;
10586;SDS011;5341;47.606;7.576;2023-08-01T00:45:48;6.90;;;4.85;;
10586;SDS011;5341;47.606;7.576;2023-08-01T00:48:15;6.00;;;4.53;;
10586;SDS011;5341;47.606;7.576;2023-08-01T00:50:44;6.97;;;4.82;;
10586;SDS011;5341;47.606;7.576;2023-08-01T00:53:12;5.05;;;4.07;;
10586;SDS011;5341;47.606;7.576;2023-08-01T00:55:39;8.10;;;4.68;;
10586;SDS011;5341;47.606;7.576;2023-08-01T00:58:08;6.35;;;4.85;;
10586;SDS011;5341;47.606;7.576;2023-08-01T01:00:36;6.82;;;4.47;;
10586;SDS011;5341;47.606;7.576;2023-08-01T01:03:21;8.15;;;4.40;;
10586;SDS011;5341;47.606;7.576;2023-08-01T01:05:49;5.18;;;4.65;;
10586;SDS011;5341;47.606;7.576;2023-08-01T01:08:20;8.75;;;5.07;;
10586;SDS011;5341;47.606;7.576;2023-08-01T01:10:48;5.40;;;4.65;;
10586;SDS011;5341;47.606;7.576;2023-08-01T01:13:17;5.35;;;4.57;;
10586;SDS011;5341;47.606;7.576;2023-08-01T01:15:44;7.18;;;4.88;;
10586;SDS011;5341;47.606;7.576;2023-08-01T01:18:12;7.68;;;4.28;;
10586;SDS011;5341;47.606;7.576;2023-08-01T01:20:42;5.28;;;4.25;;
10586;SDS011;5341;47.606;7.576;2023-08-01T01:23:09;5.15;;;4.18;;
10586;SDS011;5341;47.606;7.576;2023-08-01T01:25:38;5.75;;;4.30;;
10586;SDS011;5341;47.606;7.576;2023-08-01T01:28:07;4.97;;;4.07;;
10586;SDS011;5341;47.606;7.576;2023-08-01T01:30:37;5.78;;;4.20;;
10586;SDS011;5341;47.606;7.576;2023-08-01T01:33:05;9.40;;;4.40;;
10586;SDS011;5341;47.606;7.576;2023-08-01T01:35:34;5.65;;;3.75;;
10586;SDS011;5341;47.606;7.576;2023-08-01T01:38:03;5.28;;;4.18;;
10586;SDS011;5341;47.606;7.576;2023-08-01T01:40:31;7.28;;;4.10;;
10586;SDS011;5341;47.606;7.576;2023-08-01T01:42:59;5.50;;;4.00;;
10586;SDS011;5341;47.606;7.576;2023-08-01T01:45:27;4.95;;;4.00;;
10586;SDS011;5341;47.606;7.576;2023-08-01T01:47:55;5.35;;;3.88;;
10586;SDS011;5341;47.606;7.576;2023-08-01T01:50:22;4.82;;;3.83;;
10586;SDS011;5341;47.606;7.576;2023-08-01T01:52:50;4.95;;;3.58;;
10586;SDS011;5341;47.606;7.576;2023-08-01T01:55:19;5.15;;;3.80;;
10586;SDS011;5341;47.606;7.576;2023-08-01T01:57:47;3.90;;;3.50;;
10586;SDS011;5341;47.606;7.576;2023-08-01T02:00:14;4.30;;;3.38;;
10586;SDS011;5341;47.606;7.576;2023-08-01T02:02:42;4.32;;;3.47;;
10586;SDS011;5341;47.606;7.576;2023-08-01T02:05:09;4.13;;;3.33;;
10586;SDS011;5341;47.606;7.576;2023-08-01T02:07:37;4.97;;;3.38;;
10586;SDS011;5341;47.606;7.576;2023-08-01T02:10:05;4.57;;;3.28;;
10586;SDS011;5341;47.606;7.576;2023-08-01T02:12:35;6.13;;;3.35;;
10586;SDS011;5341;47.606;7.576;2023-08-01T02:15:03;3.58;;;3.28;;
10586;SDS011;5341;47.606;7.576;2023-08-01T02:17:32;5.20;;;3.60;;
10586;SDS011;5341;47.606;7.576;2023-08-01T02:20:00;5.38;;;3.38;;
10586;SDS011;5341;47.606;7.576;2023-08-01T02:22:28;4.60;;;3.15;;
10586;SDS011;5341;47.606;7.576;2023-08-01T02:24:55;4.85;;;2.90;;
10586;SDS011;5341;47.606;7.576;2023-08-01T02:27:23;3.65;;;3.30;;
10586;SDS011;5341;47.606;7.576;2023-08-01T02:29:52;3.95;;;3.30;;
10586;SDS011;5341;47.606;7.576;2023-08-01T02:32:19;8.48;;;3.50;;
10586;SDS011;5341;47.606;7.576;2023-08-01T02:34:47;6.00;;;3.22;;
10586;SDS011;5341;47.606;7.576;2023-08-01T02:37:15;4.20;;;3.00;;
10586;SDS011;5341;47.606;7.576;2023-08-01T02:39:42;5.75;;;3.15;;
10586;SDS011;5341;47.606;7.576;2023-08-01T02:42:10;3.78;;;3.35;;
10586;SDS011;5341;47.606;7.576;2023-08-01T02:44:40;4.60;;;3.22;;
10586;SDS011;5341;47.606;7.576;2023-08-01T02:47:10;5.43;;;3.70;;
10586;SDS011;5341;47.606;7.576;2023-08-01T02:49:38;4.50;;;3.38;;
10586;SDS011;5341;47.606;7.576;2023-08-01T02:52:05;4.30;;;3.25;;
10586;SDS011;5341;47.606;7.576;2023-08-01T02:54:33;3.20;;;2.83;;
10586;SDS011;5341;47.606;7.576;2023-08-01T02:57:01;3.65;;;2.80;;
10586;SDS011;5341;47.606;7.576;2023-08-01T02:59:28;3.25;;;2.90;;
10586;SDS011;5341;47.606;7.576;2023-08-01T03:01:58;4.40;;;3.15;;
10586;SDS011;5341;47.606;7.576;2023-08-01T03:04:28;3.95;;;2.78;;
10586;SDS011;5341;47.606;7.576;2023-08-01T03:06:56;3.53;;;3.17;;
10586;SDS011;5341;47.606;7.576;2023-08-01T03:09:23;3.78;;;3.15;;
10586;SDS011;5341;47.606;7.576;2023-08-01T03:11:50;3.85;;;3.15;;
10586;SDS011;5341;47.606;7.576;2023-08-01T03:14:18;4.25;;;3.00;;
10586;SDS011;5341;47.606;7.576;2023-08-01T03:16:46;3.28;;;2.92;;
10586;SDS011;5341;47.606;7.576;2023-08-01T03:19:13;4.13;;;3.13;;
10586;SDS011;5341;47.606;7.576;2023-08-01T03:21:42;4.35;;;2.80;;
10586;SDS011;5341;47.606;7.576;2023-08-01T03:24:10;4.00;;;3.00;;
10586;SDS011;5341;47.606;7.576;2023-08-01T03:26:37;4.00;;;2.95;;
10586;SDS011;5341;47.606;7.576;2023-08-01T03:29:05;3.38;;;2.67;;
10586;SDS011;5341;47.606;7.576;2023-08-01T03:31:32;3.33;;;2.67;;
10586;SDS011;5341;47.606;7.576;2023-08-01T03:34:00;4.90;;;3.08;;
10586;SDS011;5341;47.606;7.576;2023-08-01T03:36:28;3.50;;;3.10;;
10586;SDS011;5341;47.606;7.576;2023-08-01T03:38:57;4.35;;;3.17;;
10586;SDS011;5341;47.606;7.576;2023-08-01T03:41:25;5.90;;;3.20;;
10586;SDS011;5341;47.606;7.576;2023-08-01T03:43:53;4.10;;;3.17;;
10586;SDS011;5341;47.606;7.576;2023-08-01T03:46:21;4.82;;;2.95;;
10586;SDS011;5341;47.606;7.576;2023-08-01T03:48:48;6.00;;;3.13;;
10586;SDS011;5341;47.606;7.576;2023-08-01T03:51:17;5.78;;;3.25;;
10586;SDS011;5341;47.606;7.576;2023-08-01T03:53:44;5.85;;;3.03;;
10586;SDS011;5341;47.606;7.576;2023-08-01T03:56:13;4.60;;;3.05;;
10586;SDS011;5341;47.606;7.576;2023-08-01T03:58:41;4.65;;;3.08;;
10586;SDS011;5341;47.606;7.576;2023-08-01T04:01:08;5.68;;;3.10;;
10586;SDS011;5341;47.606;7.576;2023-08-01T04:03:36;4.95;;;3.25;;
10586;SDS011;5341;47.606;7.576;2023-08-01T04:06:04;10.35;;;3.40;;
10586;SDS011;5341;47.606;7.576;2023-08-01T04:08:32;6.15;;;3.10;;
10586;SDS011;5341;47.606;7.576;2023-08-01T04:10:59;4.68;;;3.17;;
10586;SDS011;5341;47.606;7.576;2023-08-01T04:13:28;4.90;;;3.05;;
10586;SDS011;5341;47.606;7.576;2023-08-01T04:15:55;4.18;;;2.90;;
10586;SDS011;5341;47.606;7.576;2023-08-01T04:18:23;5.20;;;2.90;;
10586;SDS011;5341;47.606;7.576;2023-08-01T04:20:50;6.72;;;3.10;;
10586;SDS011;5341;47.606;7.576;2023-08-01T04:23:18;5.45;;;3.20;;
10586;SDS011;5341;47.606;7.576;2023-08-01T04:25:45;7.75;;;3.17;;
10586;SDS011;5341;47.606;7.576;2023-08-01T04:28:12;4.68;;;2.88;;
10586;SDS011;5341;47.606;7.576;2023-08-01T04:30:41;5.57;;;3.25;;
10586;SDS011;5341;47.606;7.576;2023-08-01T04:33:08;5.95;;;3.20;;
10586;SDS011;5341;47.606;7.576;2023-08-01T04:35:36;4.45;;;2.90;;
10586;SDS011;5341;47.606;7.576;2023-08-01T04:38:03;6.07;;;2.88;;
10586;SDS011;5341;47.606;7.576;2023-08-01T04:40:31;4.03;;;3.10;;
10586;SDS011;5341;47.606;7.576;2023-08-01T04:43:00;4.30;;;3.05;;
10586;SDS011;5341;47.606;7.576;2023-08-01T04:45:28;7.45;;;3.17;;
10586;SDS011;5341;47.606;7.576;2023-08-01T04:47:57;4.35;;;2.70;;
10586;SDS011;5341;47.606;7.576;2023-08-01T04:50:25;4.05;;;2.92;;
10586;SDS011;5341;47.606;7.576;2023-08-01T04:52:52;4.22;;;2.97;;
10586;SDS011;5341;47.606;7.576;2023-08-01T04:55:21;6.10;;;3.30;;
10586;SDS011;5341;47.606;7.576;2023-08-01T04:57:49;6.05;;;3.28;;
10586;SDS011;5341;47.606;7.576;2023-08-01T05:00:16;5.20;;;3.22;;
10586;SDS011;5341;47.606;7.576;2023-08-01T05:02:45;5.50;;;3.08;;
10586;SDS011;5341;47.606;7.576;2023-08-01T05:05:14;4.57;;;3.10;;
10586;SDS011;5341;47.606;7.576;2023-08-01T05:07:43;5.53;;;3.17;;
10586;SDS011;5341;47.606;7.576;2023-08-01T05:10:10;4.78;;;2.95;;
10586;SDS011;5341;47.606;7.576;2023-08-01T05:12:37;5.47;;;3.00;;
10586;SDS011;5341;47.606;7.576;2023-08-01T05:15:05;7.10;;;3.30;;
10586;SDS011;5341;47.606;7.576;2023-08-01T05:17:33;4.80;;;3.08;;
10586;SDS011;5341;47.606;7.576;2023-08-01T05:20:01;5.20;;;3.17;;
10586;SDS011;5341;47.606;7.576;2023-08-01T05:22:31;5.43;;;3.08;;
10586;SDS011;5341;47.606;7.576;2023-08-01T05:24:58;5.05;;;3.10;;
10586;SDS011;5341;47.606;7.576;2023-08-01T05:27:27;7.38;;;3.58;;
10586;SDS011;5341;47.606;7.576;2023-08-01T05:29:54;5.70;;;3.05;;
10586;SDS011;5341;47.606;7.576;2023-08-01T05:32:22;5.30;;;3.45;;
10586;SDS011;5341;47.606;7.576;2023-08-01T05:34:49;6.53;;;3.17;;
10586;SDS011;5341;47.606;7.576;2023-08-01T05:37:16;5.93;;;3.13;;
10586;SDS011;5341;47.606;7.576;2023-08-01T05:39:45;5.50;;;3.25;;
10586;SDS011;5341;47.606;7.576;2023-08-01T05:42:13;6.05;;;3.10;;
10586;SDS011;5341;47.606;7.576;2023-08-01T05:44:40;5.03;;;2.88;;
10586;SDS011;5341;47.606;7.576;2023-08-01T05:47:07;5.38;;;3.30;;
10586;SDS011;5341;47.606;7.576;2023-08-01T05:49:35;6.75;;;3.15;;
10586;SDS011;5341;47.606;7.576;2023-08-01T05:52:02;4.20;;;3.25;;
10586;SDS011;5341;47.606;7.576;2023-08-01T05:54:30;4.75;;;3.20;;
10586;SDS011;5341;47.606;7.576;2023-08-01T05:57:00;5.47;;;3.30;;
10586;SDS011;5341;47.606;7.576;2023-08-01T05:59:27;4.88;;;3.03;;
10586;SDS011;5341;47.606;7.576;2023-08-01T06:01:54;4.97;;;3.25;;
10586;SDS011;5341;47.606;7.576;2023-08-01T06:04:22;4.88;;;2.90;;
10586;SDS011;5341;47.606;7.576;2023-08-01T06:06:49;4.43;;;3.20;;
10586;SDS011;5341;47.606;7.576;2023-08-01T06:09:16;4.53;;;3.10;;
10586;SDS011;5341;47.606;7.576;2023-08-01T06:11:44;4.18;;;3.10;;
10586;SDS011;5341;47.606;7.576;2023-08-01T06:14:13;5.07;;;3.10;;
10586;SDS011;5341;47.606;7.576;2023-08-01T06:16:41;6.18;;;3.70;;
10586;SDS011;5341;47.606;7.576;2023-08-01T06:19:08;5.75;;;3.50;;
10586;SDS011;5341;47.606;7.576;2023-08-01T06:21:35;4.40;;;3.10;;
10586;SDS011;5341;47.606;7.576;2023-08-01T06:24:03;4.03;;;3.05;;
10586;SDS011;5341;47.606;7.576;2023-08-01T06:26:31;3.05;;;2.70;;
10586;SDS011;5341;47.606;7.576;2023-08-01T06:28:58;4.70;;;3.10;;
10586;SDS011;5341;47.606;7.576;2023-08-01T06:31:27;5.88;;;3.20;;
10586;SDS011;5341;47.606;7.576;2023-08-01T06:33:54;4.18;;;2.95;;
10586;SDS011;5341;47.606;7.576;2023-08-01T06:36:22;5.75;;;3.05;;
10586;SDS011;5341;47.606;7.576;2023-08-01T06:38:49;4.10;;;3.13;;
10586;SDS011;5341;47.606;7.576;2023-08-01T06:41:17;4.93;;;3.10;;
10586;SDS011;5341;47.606;7.576;2023-08-01T06:43:44;3.80;;;2.90;;
10586;SDS011;5341;47.606;7.576;2023-08-01T06:46:11;3.92;;;2.97;;
10586;SDS011;5341;47.606;7.576;2023-08-01T06:48:40;4.35;;;3.08;;
10586;SDS011;5341;47.606;7.576;2023-08-01T06:51:08;4.22;;;2.85;;
10586;SDS011;5341;47.606;7.576;2023-08-01T06:53:35;3.28;;;2.85;;
10586;SDS011;5341;47.606;7.576;2023-08-01T06:56:03;4.70;;;3.35;;
10586;SDS011;5341;47.606;7.576;2023-08-01T06:58:30;3.92;;;2.85;;
10586;SDS011;5341;47.606;7.576;2023-08-01T07:00:58;3.90;;;2.83;;
10586;SDS011;5341;47.606;7.576;2023-08-01T07:03:25;3.80;;;2.97;;
10586;SDS011;5341;47.606;7.576;2023-08-01T07:05:54;3.72;;;3.30;;
10586;SDS011;5341;47.606;7.576;2023-08-01T07:08:21;5.25;;;3.38;;
10586;SDS011;5341;47.606;7.576;2023-08-01T07:10:49;3.35;;;2.85;;
10586;SDS011;5341;47.606;7.576;2023-08-01T07:13:16;4.13;;;2.97;;
10586;SDS011;5341;47.606;7.576;2023-08-01T07:15:45;4.15;;;3.00;;
10586;SDS011;5341;47.606;7.576;2023-08-01T07:18:12;4.28;;;3.30;;
10586;SDS011;5341;47.606;7.576;2023-08-01T07:20:39;4.97;;;2.63;;
10586;SDS011;5341;47.606;7.576;2023-08-01T07:23:08;3.40;;;2.72;;
10586;SDS011;5341;47.606;7.576;2023-08-01T07:25:36;5.63;;;3.42;;
10586;SDS011;5341;47.606;7.576;2023-08-01T07:28:03;4.43;;;3.10;;
10586;SDS011;5341;47.606;7.576;2023-08-01T07:30:31;5.85;;;3.22;;
10586;SDS011;5341;47.606;7.576;2023-08-01T07:32:58;4.45;;;3.25;;
10586;SDS011;5341;47.606;7.576;2023-08-01T07:35:25;5.93;;;3.17;;
10586;SDS011;5341;47.606;7.576;2023-08-01T07:37:53;3.95;;;3.30;;
10586;SDS011;5341;47.606;7.576;2023-08-01T07:40:22;4.53;;;3.28;;
10586;SDS011;5341;47.606;7.576;2023-08-01T07:42:50;5.32;;;3.17;;
10586;SDS011;5341;47.606;7.576;2023-08-01T07:45:17;5.30;;;3.17;;
10586;SDS011;5341;47.606;7.576;2023-08-01T07:47:46;4.28;;;3.35;;
10586;SDS011;5341;47.606;7.576;2023-08-01T07:50:14;4.88;;;3.50;;
10586;SDS011;5341;47.606;7.576;2023-08-01T07:52:41;4.53;;;3.17;;
10586;SDS011;5341;47.606;7.576;2023-08-01T07:55:09;6.45;;;3.47;;
10586;SDS011;5341;47.606;7.576;2023-08-01T07:57:38;4.28;;;3.08;;
10586;SDS011;5341;47.606;7.576;2023-08-01T08:00:08;4.47;;;3.17;;
10586;SDS011;5341;47.606;7.576;2023-08-01T08:02:42;4.38;;;3.42;;
10586;SDS011;5341;47.606;7.576;2023-08-01T08:05:10;4.15;;;2.97;;
10586;SDS011;5341;47.606;7.576;2023-08-01T08:07:37;4.78;;;2.47;;
10586;SDS011;5341;47.606;7.576;2023-08-01T08:10:06;5.35;;;2.97;;
10586;SDS011;5341;47.606;7.576;2023-08-01T08:12:34;3.78;;;2.35;;
10586;SDS011;5341;47.606;7.576;2023-08-01T08:15:03;2.30;;;2.00;;
10586;SDS011;5341;47.606;7.576;2023-08-01T08:17:31;2.63;;;2.20;;
10586;SDS011;5341;47.606;7.576;2023-08-01T08:19:59;2.25;;;2.05;;
10586;SDS011;5341;47.606;7.576;2023-08-01T08:22:26;2.65;;;2.10;;
10586;SDS011;5341;47.606;7.576;2023-08-01T08:24:54;2.55;;;2.17;;
10586;SDS011;5341;47.606;7.576;2023-08-01T08:27:22;2.78;;;2.03;;
10586;SDS011;5341;47.606;7.576;2023-08-01T08:29:50;1.95;;;1.58;;
10586;SDS011;5341;47.606;7.576;2023-08-01T08:32:21;2.00;;;1.80;;
10586;SDS011;5341;47.606;7.576;2023-08-01T08:34:49;2.17;;;1.95;;
10586;SDS011;5341;47.606;7.576;2023-08-01T08:37:16;2.70;;;2.03;;
10586;SDS011;5341;47.606;7.576;2023-08-01T08:39:44;2.10;;;1.70;;
10586;SDS011;5341;47.606;7.576;2023-08-01T08:42:13;1.90;;;1.70;;
10586;SDS011;5341;47.606;7.576;2023-08-01T08:44:44;2.08;;;1.70;;
10586;SDS011;5341;47.606;7.576;2023-08-01T08:47:16;3.63;;;1.77;;
10586;SDS011;5341;47.606;7.576;2023-08-01T08:49:47;2.15;;;1.80;;
10586;SDS011;5341;47.606;7.576;2023-08-01T08:52:15;2.47;;;1.60;;
10586;SDS011;5341;47.606;7.576;2023-08-01T08:54:43;1.95;;;1.75;;
10586;SDS011;5341;47.606;7.576;2023-08-01T08:57:12;2.08;;;1.70;;
10586;SDS011;5341;47.606;7.576;2023-08-01T08:59:40;2.35;;;1.60;;
10586;SDS011;5341;47.606;7.576;2023-08-01T09:02:09;2.17;;;1.70;;
10586;SDS011;5341;47.606;7.576;2023-08-01T09:04:36;2.30;;;1.58;;
10586;SDS011;5341;47.606;7.576;2023-08-01T09:07:07;1.60;;;1.50;;
10586;SDS011;5341;47.606;7.576;2023-08-01T09:09:36;3.70;;;1.80;;
10586;SDS011;5341;47.606;7.576;2023-08-01T09:12:05;2.10;;;1.90;;
10586;SDS011;5341;47.606;7.576;2023-08-01T09:14:34;2.40;;;2.20;;
10586;SDS011;5341;47.606;7.576;2023-08-01T09:17:05;2.72;;;1.60;;
10586;SDS011;5341;47.606;7.576;2023-08-01T09:19:34;2.55;;;2.10;;
10586;SDS011;5341;47.606;7.576;2023-08-01T09:22:02;3.15;;;2.20;;
10586;SDS011;5341;47.606;7.576;2023-08-01T09:24:38;2.13;;;1.90;;
10586;SDS011;5341;47.606;7.576;2023-08-01T09:27:06;2.53;;;1.90;;
10586;SDS011;5341;47.606;7.576;2023-08-01T09:29:35;3.00;;;2.30;;
10586;SDS011;5341;47.606;7.576;2023-08-01T09:32:11;2.33;;;1.90;;
10586;SDS011;5341;47.606;7.576;2023-08-01T09:34:40;2.63;;;2.13;;
10586;SDS011;5341;47.606;7.576;2023-08-01T09:37:08;2.67;;;2.00;;
10586;SDS011;5341;47.606;7.576;2023-08-01T09:39:37;4.43;;;2.08;;
10586;SDS011;5341;47.606;7.576;2023-08-01T09:42:05;3.47;;;1.90;;
10586;SDS011;5341;47.606;7.576;2023-08-01T09:44:34;3.00;;;2.20;;
10586;SDS011;5341;47.606;7.576;2023-08-01T09:47:03;2.10;;;1.85;;
10586;SDS011;5341;47.606;7.576;2023-08-01T09:49:32;2.25;;;2.05;;
10586;SDS011;5341;47.606;7.576;2023-08-01T09:52:02;2.55;;;1.98;;
10586;SDS011;5341;47.606;7.576;2023-08-01T09:54:30;2.42;;;2.05;;
10586;SDS011;5341;47.606;7.576;2023-08-01T09:56:59;2.33;;;2.10;;
10586;SDS011;5341;47.606;7.576;2023-08-01T09:59:30;2.28;;;1.98;;
10586;SDS011;5341;47.606;7.576;2023-08-01T10:01:57;2.85;;;1.95;;
10586;SDS011;5341;47.606;7.576;2023-08-01T10:04:26;3.30;;;1.80;;
10586;SDS011;5341;47.606;7.576;2023-08-01T10:06:57;2.38;;;2.10;;
10586;SDS011;5341;47.606;7.576;2023-08-01T10:09:26;3.15;;;1.83;;
10586;SDS011;5341;47.606;7.576;2023-08-01T10:11:56;3.03;;;1.85;;
10586;SDS011;5341;47.606;7.576;2023-08-01T10:14:25;2.33;;;1.88;;
10586;SDS011;5341;47.606;7.576;2023-08-01T10:16:53;2.22;;;2.00;;
10586;SDS011;5341;47.606;7.576;2023-08-01T10:19:21;2.60;;;1.92;;
10586;SDS011;5341;47.606;7.576;2023-08-01T10:21:51;2.33;;;1.80;;
10586;SDS011;5341;47.606;7.576;2023-08-01T10:24:20;2.00;;;1.67;;
10586;SDS011;5341;47.606;7.576;2023-08-01T10:26:48;1.73;;;1.60;;
10586;SDS011;5341;47.606;7.576;2023-08-01T10:29:15;1.70;;;1.60;;
10586;SDS011;5341;47.606;7.576;2023-08-01T10:31:52;1.88;;;1.50;;
10586;SDS011;5341;47.606;7.576;2023-08-01T10:34:19;2.03;;;1.52;;
10586;SDS011;5341;47.606;7.576;2023-08-01T10:36:54;1.60;;;1.50;;
10586;SDS011;5341;47.606;7.576;2023-08-01T10:39:22;4.10;;;2.72;;
10586;SDS011;5341;47.606;7.576;2023-08-01T10:41:56;3.85;;;2.63;;
10586;SDS011;5341;47.606;7.576;2023-08-01T10:44:25;2.67;;;2.25;;
10586;SDS011;5341;47.606;7.576;2023-08-01T10:46:55;4.00;;;2.78;;
10586;SDS011;5341;47.606;7.576;2023-08-01T10:49:33;2.13;;;1.92;;
10586;SDS011;5341;47.606;7.576;2023-08-01T10:52:02;2.40;;;2.03;;
10586;SDS011;5341;47.606;7.576;2023-08-01T10:54:31;2.33;;;2.00;;
10586;SDS011;5341;47.606;7.576;2023-08-01T10:57:03;2.08;;;1.88;;
10586;SDS011;5341;47.606;7.576;2023-08-01T10:59:32;3.53;;;1.77;;
10586;SDS011;5341;47.606;7.576;2023-08-01T11:02:02;2.10;;;1.70;;
10586;SDS011;5341;47.606;7.576;2023-08-01T11:04:30;3.80;;;1.80;;
10586;SDS011;5341;47.606;7.576;2023-08-01T11:06:58;2.15;;;1.60;;
10586;SDS011;5341;47.606;7.576;2023-08-01T11:09:26;2.10;;;1.60;;
10586;SDS011;5341;47.606;7.576;2023-08-01T11:11:55;1.90;;;1.55;;
10586;SDS011;5341;47.606;7.576;2023-08-01T11:14:26;1.63;;;1.48;;
10586;SDS011;5341;47.606;7.576;2023-08-01T11:16:55;1.60;;;1.40;;
10586;SDS011;5341;47.606;7.576;2023-08-01T11:19:27;1.85;;;1.45;;
10586;SDS011;5341;47.606;7.576;2023-08-01T11:21:56;1.65;;;1.55;;
10586;SDS011;5341;47.606;7.576;2023-08-01T11:24:25;2.10;;;1.52;;
10586;SDS011;5341;47.606;7.576;2023-08-01T11:26:53;2.35;;;1.80;;
10586;SDS011;5341;47.606;7.576;2023-08-01T11:29:21;1.70;;;1.52;;
10586;SDS011;5341;47.606;7.576;2023-08-01T11:31:52;3.60;;;1.70;;
10586;SDS011;5341;47.606;7.576;2023-08-01T11:34:20;2.67;;;1.48;;
10586;SDS011;5341;47.606;7.576;2023-08-01T11:36:50;1.60;;;1.40;;
10586;SDS011;5341;47.606;7.576;2023-08-01T11:39:18;1.75;;;1.50;;
10586;SDS011;5341;47.606;7.576;2023-08-01T11:41:47;1.45;;;1.35;;
10586;SDS011;5341;47.606;7.576;2023-08-01T11:44:15;1.73;;;1.40;;
10586;SDS011;5341;47.606;7.576;2023-08-01T11:46:42;1.52;;;1.20;;
10586;SDS011;5341;47.606;7.576;2023-08-01T11:49:13;2.67;;;1.48;;
10586;SDS011;5341;47.606;7.576;2023-08-01T11:51:41;1.38;;;1.27;;
10586;SDS011;5341;47.606;7.576;2023-08-01T11:54:11;1.45;;;1.35;;
10586;SDS011;5341;47.606;7.576;2023-08-01T11:56:39;1.60;;;1.30;;
10586;SDS011;5341;47.606;7.576;2023-08-01T11:59:07;1.73;;;1.13;;
10586;SDS011;5341;47.606;7.576;2023-08-01T12:01:39;1.60;;;1.30;;
10586;SDS011;5341;47.606;7.576;2023-08-01T12:04:07;2.28;;;1.30;;
10586;SDS011;5341;47.606;7.576;2023-08-01T12:06:34;3.67;;;1.50;;
10586;SDS011;5341;47.606;7.576;2023-08-01T12:09:08;2.22;;;1.50;;
10586;SDS011;5341;47.606;7.576;2023-08-01T12:11:38;2.42;;;1.50;;
10586;SDS011;5341;47.606;7.576;2023-08-01T12:14:06;1.52;;;1.27;;
10586;SDS011;5341;47.606;7.576;2023-08-01T12:16:35;1.95;;;1.20;;
10586;SDS011;5341;47.606;7.576;2023-08-01T12:19:03;2.50;;;1.20;;
10586;SDS011;5341;47.606;7.576;2023-08-01T12:21:31;2.20;;;1.42;;
10586;SDS011;5341;47.606;7.576;2023-08-01T12:23:59;2.70;;;1.35;;
10586;SDS011;5341;47.606;7.576;2023-08-01T12:26:27;1.75;;;1.13;;
10586;SDS011;5341;47.606;7.576;2023-08-01T12:28:56;2.13;;;1.20;;
10586;SDS011;5341;47.606;7.576;2023-08-01T12:31:24;1.58;;;1.20;;
10586;SDS011;5341;47.606;7.576;2023-08-01T12:33:51;1.58;;;1.15;;
10586;SDS011;5341;47.606;7.576;2023-08-01T12:36:19;3.50;;;1.10;;
10586;SDS011;5341;47.606;7.576;2023-08-01T12:38:47;1.80;;;1.33;;
10586;SDS011;5341;47.606;7.576;2023-08-01T12:41:15;1.35;;;1.25;;
10586;SDS011;5341;47.606;7.576;2023-08-01T12:43:42;2.20;;;1.20;;
10586;SDS011;5341;47.606;7.576;2023-08-01T12:46:11;2.00;;;1.40;;
10586;SDS011;5341;47.606;7.576;2023-08-01T12:48:38;1.60;;;1.20;;
10586;SDS011;5341;47.606;7.576;2023-08-01T12:51:06;2.25;;;1.30;;
10586;SDS011;5341;47.606;7.576;2023-08-01T12:53:33;1.83;;;1.13;;
10586;SDS011;5341;47.606;7.576;2023-08-01T12:56:06;2.10;;;1.20;;
10586;SDS011;5341;47.606;7.576;2023-08-01T12:58:34;1.15;;;1.02;;
10586;SDS011;5341;47.606;7.576;2023-08-01T13:01:02;1.73;;;1.23;;
10586;SDS011;5341;47.606;7.576;2023-08-01T13:03:31;1.35;;;1.25;;
10586;SDS011;5341;47.606;7.576;2023-08-01T13:05:59;1.20;;;1.10;;
10586;SDS011;5341;47.606;7.576;2023-08-01T13:08:26;1.92;;;1.27;;
10586;SDS011;5341;47.606;7.576;2023-08-01T13:10:54;1.35;;;1.25;;
10586;SDS011;5341;47.606;7.576;2023-08-01T13:13:22;1.55;;;1.20;;
10586;SDS011;5341;47.606;7.576;2023-08-01T13:15:50;1.35;;;1.15;;
10586;SDS011;5341;47.606;7.576;2023-08-01T13:18:18;1.50;;;1.10;;
10586;SDS011;5341;47.606;7.576;2023-08-01T13:20:46;1.95;;;1.30;;
10586;SDS011;5341;47.606;7.576;2023-08-01T13:23:14;1.55;;;1.40;;
10586;SDS011;5341;47.606;7.576;2023-08-01T13:25:41;1.40;;;1.25;;
10586;SDS011;5341;47.606;7.576;2023-08-01T13:28:11;1.63;;;1.23;;
10586;SDS011;5341;47.606;7.576;2023-08-01T13:30:39;1.83;;;1.40;;
10586;SDS011;5341;47.606;7.576;2023-08-01T13:33:06;1.38;;;1.23;;
10586;SDS011;5341;47.606;7.576;2023-08-01T13:35:34;1.77;;;1.50;;
10586;SDS011;5341;47.606;7.576;2023-08-01T13:38:03;1.58;;;1.30;;
10586;SDS011;5341;47.606;7.576;2023-08-01T13:40:30;1.25;;;1.15;;
10586;SDS011;5341;47.606;7.576;2023-08-01T13:42:58;1.52;;;1.20;;
10586;SDS011;5341;47.606;7.576;2023-08-01T13:45:25;1.88;;;1.50;;
10586;SDS011;5341;47.606;7.576;2023-08-01T13:47:53;1.52;;;1.42;;
10586;SDS011;5341;47.606;7.576;2023-08-01T13:50:20;1.42;;;1.33;;
10586;SDS011;5341;47.606;7.576;2023-08-01T13:52:47;1.67;;;1.45;;
10586;SDS011;5341;47.606;7.576;2023-08-01T13:55:16;2.05;;;1.40;;
10586;SDS011;5341;47.606;7.576;2023-08-01T13:57:44;1.40;;;1.30;;
10586;SDS011;5341;47.606;7.576;2023-08-01T14:00:12;1.40;;;1.30;;
10586;SDS011;5341;47.606;7.576;2023-08-01T14:02:42;2.03;;;1.50;;
10586;SDS011;5341;47.606;7.576;2023-08-01T14:05:10;1.58;;;1.20;;
10586;SDS011;5341;47.606;7.576;2023-08-01T14:07:37;3.15;;;1.30;;
10586;SDS011;5341;47.606;7.576;2023-08-01T14:10:05;2.65;;;1.20;;
10586;SDS011;5341;47.606;7.576;2023-08-01T14:12:35;2.13;;;1.33;;
10586;SDS011;5341;47.606;7.576;2023-08-01T14:15:03;1.30;;;1.20;;
10586;SDS011;5341;47.606;7.576;2023-08-01T14:17:31;3.00;;;1.40;;
10586;SDS011;5341;47.606;7.576;2023-08-01T14:19:59;1.90;;;1.30;;
10586;SDS011;5341;47.606;7.576;2023-08-01T14:22:26;3.20;;;1.20;;
10586;SDS011;5341;47.606;7.576;2023-08-01T14:24:54;2.80;;;1.02;;
10586;SDS011;5341;47.606;7.576;2023-08-01T14:27:23;1.13;;;1.02;;
10586;SDS011;5341;47.606;7.576;2023-08-01T14:29:55;1.67;;;1.25;;
10586;SDS011;5341;47.606;7.576;2023-08-01T14:32:22;1.70;;;1.30;;
10586;SDS011;5341;47.606;7.576;2023-08-01T14:34:50;1.77;;;1.10;;
10586;SDS011;5341;47.606;7.576;2023-08-01T14:37:17;2.80;;;1.13;;
10586;SDS011;5341;47.606;7.576;2023-08-01T14:39:47;2.00;;;1.42;;
10586;SDS011;5341;47.606;7.576;2023-08-01T14:42:15;2.70;;;1.20;;
10586;SDS011;5341;47.606;7.576;2023-08-01T14:44:42;5.07;;;1.20;;
10586;SDS011;5341;47.606;7.576;2023-08-01T14:47:11;1.30;;;1.20;;
10586;SDS011;5341;47.606;7.576;2023-08-01T14:49:39;1.75;;;1.20;;
10586;SDS011;5341;47.606;7.576;2023-08-01T14:52:11;1.60;;;1.20;;
10586;SDS011;5341;47.606;7.576;2023-08-01T14:54:39;1.55;;;1.25;;
10586;SDS011;5341;47.606;7.576;2023-08-01T14:57:07;1.33;;;1.17;;
10586;SDS011;5341;47.606;7.576;2023-08-01T14:59:35;1.58;;;1.33;;
10586;SDS011;5341;47.606;7.576;2023-08-01T15:02:02;1.50;;;1.40;;
10586;SDS011;5341;47.606;7.576;2023-08-01T15:04:32;2.17;;;1.40;;
10586;SDS011;5341;47.606;7.576;2023-08-01T15:07:00;2.70;;;1.50;;